Time;durP1;ratioP1;P1;durP2;ratioP2;P2;SDS_P1;SDS_P2;PMS_P1;PMS_P2;Temp;Humidity;BMP_temperature;BMP_pressure;BME280_temperature;BME280_humidity;BME280_pressure;Samples;Min_cycle;Max_cycle;Signal;HPM_P1;HPM_P2
2023/10/28 00:02:14;;;;;;;8.20;4.43;;;;;;;;;;5023115;28;20014;-75
2023/10/28 00:04:51;;;;;;;12.60;4.20;;;;;;;;;;5023392;28;20022;-76
2023/10/28 00:07:19;;;;;;;14.30;5.20;;;;;;;;;;5022778;28;20030;-75
2023/10/28 00:09:45;;;;;;;16.10;5.13;;;;;;;;;;5023315;28;20040;-76
2023/10/28 00:12:14;;;;;;;13.67;5.63;;;;;;;;;;5023305;28;20041;-80
2023/10/28 00:14:40;;;;;;;16.17;6.13;;;;;;;;;;5022869;28;20038;-77
2023/10/28 00:17:08;;;;;;;20.50;6.13;;;;;;;;;;5040058;28;20022;-76
2023/10/28 00:19:37;;;;;;;16.63;5.17;;;;;;;;;;5037949;28;20014;-78
2023/10/28 00:22:05;;;;;;;10.53;4.27;;;;;;;;;;5019470;28;20014;-76
2023/10/28 00:24:41;;;;;;;;;;;;;;;;;;;;;
2023/10/28 00:27:09;;;;;;;13.07;5.03;;;;;;;;;;5038725;28;20057;-76
2023/10/28 00:29:35;;;;;;;15.03;5.13;;;;;;;;;;5019843;28;20037;-76
2023/10/28 00:32:03;;;;;;;17.33;5.50;;;;;;;;;;5041567;28;20026;-76
2023/10/28 00:34:32;;;;;;;15.23;5.77;;;;;;;;;;5022640;28;20772;-75
2023/10/28 00:37:01;;;;;;;19.60;5.57;;;;;;;;;;5019052;28;20018;-76
2023/10/28 00:39:29;;;;;;;19.60;5.97;;;;;;;;;;5039169;28;20026;-75
2023/10/28 00:42:01;;;;;;;11.43;5.83;;;;;;;;;;5019673;28;20022;-76
2023/10/28 00:44:28;;;;;;;16.05;5.50;;;;;;;;;;5019193;28;20022;-77
2023/10/28 00:46:59;;;;;;;17.33;5.70;;;;;;;;;;5015390;28;20060;-76
2023/10/28 00:49:25;;;;;;;17.27;5.80;;;;;;;;;;5016261;28;20093;-76
2023/10/28 00:51:56;;;;;;;23.17;6.27;;;;;;;;;;5016567;28;20044;-77
2023/10/28 00:54:24;;;;;;;21.53;6.00;;;;;;;;;;5034958;28;20026;-75
2023/10/28 00:56:52;;;;;;;15.57;5.37;;;;;;;;;;5034288;28;20033;-75
2023/10/28 00:59:18;;;;;;;17.07;5.63;;;;;;;;;;5016850;28;20026;-76
2023/10/28 01:01:46;;;;;;;15.43;5.50;;;;;;;;;;5034258;28;20082;-75
2023/10/28 01:04:12;;;;;;;16.03;5.57;;;;;;;;;;5013660;28;20026;-77
2023/10/28 01:06:39;;;;;;;15.63;5.67;;;;;;;;;;5017208;28;20101;-76
2023/10/28 01:09:05;;;;;;;14.43;5.47;;;;;;;;;;5034377;28;20090;-76
2023/10/28 01:11:31;;;;;;;18.20;5.33;;;;;;;;;;5016296;28;20053;-77
2023/10/28 01:13:58;;;;;;;15.43;5.30;;;;;;;;;;5029509;28;20022;-76
2023/10/28 01:16:26;;;;;;;14.80;5.13;;;;;;;;;;5030064;28;20014;-76
2023/10/28 01:18:55;;;;;;;14.17;5.17;;;;;;;;;;5028849;28;20060;-75
2023/10/28 01:21:29;;;;;;;15.30;5.90;;;;;;;;;;5033976;28;20049;-76
2023/10/28 01:24:06;;;;;;;11.33;5.40;;;;;;;;;;5028696;28;20030;-75
2023/10/28 01:26:32;;;;;;;18.87;5.33;;;;;;;;;;5033162;28;20042;-76
2023/10/28 01:29:07;;;;;;;15.40;5.47;;;;;;;;;;5016673;28;20034;-75
2023/10/28 01:31:37;;;;;;;15.23;5.70;;;;;;;;;;5015993;28;20093;-76
2023/10/28 01:34:13;;;;;;;;;;;;;;;;;;;;;
2023/10/28 01:36:49;;;;;;;;;;;;;;;;;;;;;
2023/10/28 01:39:18;;;;;;;21.40;5.70;;;;;;;;;;5033637;28;20044;-76
2023/10/28 01:42:01;;;;;;;12.47;5.17;;;;;;;;;;5027438;28;20021;-76
2023/10/28 01:44:34;;;;;;;;;;;;;;;;;;5016798;28;20068;-77
2023/10/28 01:47:08;;;;;;;19.33;6.23;;;;;;;;;;5012707;28;19990;-77
2023/10/28 01:49:50;;;;;;;11.50;5.13;;;;;;;;;;5016926;28;20029;-76
2023/10/28 01:52:20;;;;;;;15.10;4.90;;;;;;;;;;5033000;28;20018;-76
2023/10/28 01:54:47;;;;;;;11.13;4.50;;;;;;;;;;5033059;28;20026;-76
2023/10/28 01:57:20;;;;;;;8.47;3.77;;;;;;;;;;5016029;28;20036;-76
2023/10/28 01:59:50;;;;;;;9.68;4.10;;;;;;;;;;5029337;28;20025;-76
2023/10/28 02:02:19;;;;;;;13.17;3.73;;;;;;;;;;5028473;28;20029;-76
2023/10/28 02:04:48;;;;;;;11.73;3.93;;;;;;;;;;5033533;28;20135;-76
2023/10/28 02:07:21;;;;;;;11.50;3.93;;;;;;;;;;5031693;28;20033;-77
2023/10/28 02:09:49;;;;;;;10.00;4.00;;;;;;;;;;5031701;28;20017;-76
2023/10/28 02:12:20;;;;;;;9.23;3.60;;;;;;;;;;5015363;28;20120;-76
2023/10/28 02:15:07;;;;;;;11.13;2.90;;;;;;;;;;5015846;28;20093;-76
2023/10/28 02:17:35;;;;;;;6.37;3.23;;;;;;;;;;5031960;28;20069;-76
2023/10/28 02:20:10;;;;;;;11.47;2.80;;;;;;;;;;5031288;28;20002;-76
2023/10/28 02:22:38;;;;;;;8.40;2.40;;;;;;;;;;5031310;28;20052;-76
2023/10/28 02:25:30;;;;;;;10.80;3.03;;;;;;;;;;5033057;28;20048;-77
2023/10/28 02:28:00;;;;;;;9.15;3.15;;;;;;;;;;5029482;28;20042;-76
2023/10/28 02:30:39;;;;;;;;;;;;;;;;;;;;;
2023/10/28 02:33:15;;;;;;;9.20;2.70;;;;;;;;;;5033046;28;20046;-76
2023/10/28 02:35:53;;;;;;;6.50;2.83;;;;;;;;;;5027636;28;20018;-76
2023/10/28 02:38:19;;;;;;;7.60;2.73;;;;;;;;;;5029114;28;20321;-76
2023/10/28 02:40:46;;;;;;;10.07;3.40;;;;;;;;;;5033148;28;20057;-76
2023/10/28 02:43:12;;;;;;;9.57;3.10;;;;;;;;;;5033464;28;20058;-76
2023/10/28 02:45:46;;;;;;;9.13;3.60;;;;;;;;;;5017805;28;20057;-76
2023/10/28 02:48:12;;;;;;;8.63;3.50;;;;;;;;;;5017978;28;20121;-75
2023/10/28 02:50:43;;;;;;;9.47;3.67;;;;;;;;;;5020080;28;20041;-76
2023/10/28 02:53:09;;;;;;;8.07;3.13;;;;;;;;;;5017722;28;20034;-76
2023/10/28 02:55:55;;;;;;;9.80;3.87;;;;;;;;;;5020120;28;20018;-76
2023/10/28 02:58:23;;;;;;;10.93;4.67;;;;;;;;;;5017140;28;20022;-76
2023/10/28 03:00:49;;;;;;;12.77;3.70;;;;;;;;;;5035921;28;20086;-76
2023/10/28 03:03:28;;;;;;;;;;;;;;;;;;;;;
2023/10/28 03:06:02;;;;;;;11.70;4.30;;;;;;;;;;5036238;28;20046;-75
2023/10/28 03:08:31;;;;;;;10.37;3.93;;;;;;;;;;5018914;28;20033;-76
2023/10/28 03:11:20;;;;;;;10.70;4.87;;;;;;;;;;5017342;28;20102;-75
2023/10/28 03:14:04;;;;;;;14.80;4.60;;;;;;;;;;5036652;28;20086;-76
2023/10/28 03:16:30;;;;;;;10.57;4.63;;;;;;;;;;5025366;28;20038;-76
2023/10/28 03:19:16;;;;;;;;;;;;;;;;;;;;;
2023/10/28 03:21:48;;;;;;;12.90;4.63;;;;;;;;;;5035970;28;20042;-75
2023/10/28 03:24:23;;;;;;;17.37;6.03;;;;;;;;;;5016531;28;20108;-76
2023/10/28 03:29:58;;;;;;;13.60;5.20;;;;;;;;;;5035710;28;20022;-76
2023/10/28 03:32:24;;;;;;;10.20;4.97;;;;;;;;;;5017018;28;20018;-76
2023/10/28 03:34:59;;;;;;;15.30;5.07;;;;;;;;;;5020538;28;20052;-75
2023/10/28 03:37:37;;;;;;;;;;;;;;;;;;;;;
2023/10/28 03:40:13;;;;;;;12.13;4.67;;;;;;;;;;5039326;28;20038;-76
2023/10/28 03:42:39;;;;;;;15.03;5.17;;;;;;;;;;5037361;28;20022;-76
2023/10/28 03:45:42;;;;;;;13.03;4.60;;;;;;;;;;5021093;28;20080;-76
2023/10/28 03:48:21;;;;;;;11.50;4.73;;;;;;;;;;5035982;28;20033;-75
2023/10/28 03:50:58;;;;;;;14.17;5.73;;;;;;;;;;5038868;28;20030;-76
2023/10/28 03:53:32;;;;;;;12.67;5.37;;;;;;;;;;5020825;28;20053;-75
2023/10/28 03:56:06;;;;;;;14.33;4.60;;;;;;;;;;5020346;28;20014;-75
2023/10/28 03:58:35;;;;;;;11.70;4.63;;;;;;;;;;5018650;28;20045;-76
2023/10/28 04:01:08;;;;;;;14.40;5.37;;;;;;;;;;5019497;28;20022;-77
2023/10/28 04:03:46;;;;;;;13.47;4.43;;;;;;;;;;5036589;28;20044;-76
2023/10/28 04:06:14;;;;;;;16.17;5.37;;;;;;;;;;5036221;28;20021;-76
2023/10/28 04:08:59;;;;;;;13.20;4.83;;;;;;;;;;5019721;28;20078;-75
2023/10/28 04:11:37;;;;;;;;;;;;;;;;;;;;;
2023/10/28 04:14:06;;;;;;;13.13;4.30;;;;;;;;;;5039032;28;20129;-77
2023/10/28 04:16:32;;;;;;;9.40;3.87;;;;;;;;;;5039177;28;20018;-76
2023/10/28 04:18:58;;;;;;;11.57;3.60;;;;;;;;;;5038615;28;20045;-75
2023/10/28 04:24:22;;;;;;;5.80;2.97;;;;;;;;;;5030984;28;20037;-76
2023/10/28 04:27:07;;;;;;;9.73;3.57;;;;;;;;;;5019455;28;20030;-76
2023/10/28 04:29:51;;;;;;;7.10;3.60;;;;;;;;;;5037063;28;20109;-76
2023/10/28 04:32:20;;;;;;;13.93;3.63;;;;;;;;;;5021218;28;20018;-76
2023/10/28 04:34:46;;;;;;;8.33;2.87;;;;;;;;;;5022035;28;20021;-76
2023/10/28 04:37:12;;;;;;;11.97;3.43;;;;;;;;;;5019744;28;20030;-75
2023/10/28 04:39:51;;;;;;;;;;;;;;;;;;;;;
2023/10/28 04:42:18;;;;;;;6.37;3.10;;;;;;;;;;5036472;28;20044;-75
2023/10/28 04:44:44;;;;;;;6.40;3.03;;;;;;;;;;5020533;28;20038;-77
2023/10/28 04:47:11;;;;;;;7.90;3.30;;;;;;;;;;5022637;28;20034;-75
2023/10/28 04:49:42;;;;;;;13.00;4.13;;;;;;;;;;5039102;28;20010;-75
2023/10/28 04:52:08;;;;;;;8.03;3.20;;;;;;;;;;5035667;28;20014;-76
2023/10/28 04:54:44;;;;;;;4.93;2.70;;;;;;;;;;5039222;28;20045;-75
2023/10/28 04:57:12;;;;;;;6.73;3.30;;;;;;;;;;5022228;28;20033;-77
2023/10/28 04:59:49;;;;;;;9.40;3.17;;;;;;;;;;5017506;28;20085;-78
2023/10/28 05:02:18;;;;;;;4.90;2.80;;;;;;;;;;5022383;28;20009;-75
2023/10/28 05:04:44;;;;;;;8.53;3.43;;;;;;;;;;5022253;28;20038;-76
2023/10/28 05:07:10;;;;;;;9.53;3.93;;;;;;;;;;5039108;28;20049;-79
2023/10/28 05:09:36;;;;;;;11.77;3.60;;;;;;;;;;5039014;28;20006;-77
2023/10/28 05:12:05;;;;;;;6.97;3.20;;;;;;;;;;5021682;28;20045;-76
2023/10/28 05:14:34;;;;;;;4.67;2.87;;;;;;;;;;5039134;28;20010;-78
2023/10/28 05:17:07;;;;;;;8.00;3.27;;;;;;;;;;5022131;28;20033;-76
2023/10/28 05:19:33;;;;;;;6.00;2.60;;;;;;;;;;5019516;28;20034;-77
2023/10/28 05:22:02;;;;;;;7.40;3.00;;;;;;;;;;5021941;28;20022;-76
2023/10/28 05:24:30;;;;;;;7.80;2.90;;;;;;;;;;5022184;28;20026;-77
2023/10/28 05:27:02;;;;;;;5.43;3.50;;;;;;;;;;5021436;28;20033;-76
2023/10/28 05:29:31;;;;;;;7.50;3.58;;;;;;;;;;5021825;28;20014;-75
2023/10/28 05:31:58;;;;;;;5.77;3.10;;;;;;;;;;5024264;28;20018;-75
2023/10/28 05:34:29;;;;;;;7.53;4.47;;;;;;;;;;5021927;28;20024;-75
2023/10/28 05:36:55;;;;;;;8.47;3.77;;;;;;;;;;5021757;28;20026;-77
2023/10/28 05:39:21;;;;;;;14.43;4.63;;;;;;;;;;5038058;28;20026;-79
2023/10/28 05:41:48;;;;;;;12.53;4.50;;;;;;;;;;5038130;28;20034;-78
2023/10/28 05:44:17;;;;;;;9.10;3.90;;;;;;;;;;5020293;28;20038;-76
2023/10/28 05:46:45;;;;;;;9.90;3.70;;;;;;;;;;5021368;28;20033;-78
2023/10/28 05:49:14;;;;;;;10.40;4.40;;;;;;;;;;5038462;28;20085;-76
2023/10/28 05:51:42;;;;;;;10.50;4.70;;;;;;;;;;5025846;28;20033;-79
2023/10/28 05:54:11;;;;;;;9.83;4.33;;;;;;;;;;5021688;28;20046;-75
2023/10/28 05:56:39;;;;;;;13.10;4.50;;;;;;;;;;5021520;28;20006;-77
2023/10/28 05:59:05;;;;;;;8.47;4.17;;;;;;;;;;5021651;28;20045;-78
2023/10/28 06:01:34;;;;;;;8.83;3.80;;;;;;;;;;5021251;28;20049;-79
2023/10/28 06:04:03;;;;;;;8.73;5.13;;;;;;;;;;5025026;28;20014;-75
2023/10/28 06:06:29;;;;;;;10.17;3.53;;;;;;;;;;5037409;28;20044;-75
2023/10/28 06:09:16;;;;;;;14.63;4.60;;;;;;;;;;5021293;28;20029;-78
2023/10/28 06:11:42;;;;;;;13.60;5.90;;;;;;;;;;5021182;28;20014;-76
2023/10/28 06:14:12;;;;;;;13.17;6.73;;;;;;;;;;5021691;28;20022;-76
2023/10/28 06:16:45;;;;;;;13.90;5.83;;;;;;;;;;5039022;28;20069;-76
2023/10/28 06:19:14;;;;;;;9.63;4.03;;;;;;;;;;5019661;28;20553;-75
2023/10/28 06:21:43;;;;;;;16.77;5.97;;;;;;;;;;5019457;28;20041;-75
2023/10/28 06:24:11;;;;;;;9.93;4.37;;;;;;;;;;5019267;28;20029;-76
2023/10/28 06:26:39;;;;;;;9.53;4.43;;;;;;;;;;5020242;28;20041;-78
2023/10/28 06:29:05;;;;;;;9.67;3.10;;;;;;;;;;5018702;28;20010;-77
2023/10/28 06:31:36;;;;;;;7.27;2.63;;;;;;;;;;5019563;28;20240;-75
2023/10/28 06:34:04;;;;;;;8.13;4.30;;;;;;;;;;5035696;28;20014;-76
2023/10/28 06:36:33;;;;;;;6.07;2.70;;;;;;;;;;5019773;28;20026;-76
2023/10/28 06:39:09;;;;;;;8.23;1.87;;;;;;;;;;5017233;28;20018;-75
2023/10/28 06:41:38;;;;;;;8.33;2.13;;;;;;;;;;5028209;28;20020;-76
2023/10/28 06:44:08;;;;;;;5.93;2.50;;;;;;;;;;5036999;28;20030;-76
2023/10/28 06:46:36;;;;;;;8.67;2.70;;;;;;;;;;5019059;28;20121;-75
2023/10/28 06:49:10;;;;;;;10.73;2.63;;;;;;;;;;5016948;28;20018;-76
2023/10/28 06:51:39;;;;;;;5.97;3.00;;;;;;;;;;5030059;28;20030;-77
2023/10/28 06:54:07;;;;;;;5.57;2.20;;;;;;;;;;5033178;28;20026;-78
2023/10/28 06:56:35;;;;;;;10.07;2.67;;;;;;;;;;5015937;28;20060;-75
2023/10/28 06:59:04;;;;;;;7.13;2.37;;;;;;;;;;5033076;28;20212;-75
2023/10/28 07:01:30;;;;;;;9.73;2.47;;;;;;;;;;5029340;28;20026;-76
2023/10/28 07:03:59;;;;;;;6.60;2.50;;;;;;;;;;5026605;28;20093;-76
2023/10/28 07:06:27;;;;;;;7.17;2.57;;;;;;;;;;5028666;28;20050;-76
2023/10/28 07:08:53;;;;;;;8.93;3.03;;;;;;;;;;5017763;28;20026;-77
2023/10/28 07:11:21;;;;;;;3.90;1.57;;;;;;;;;;5019824;28;20064;-75
2023/10/28 07:13:50;;;;;;;5.93;2.10;;;;;;;;;;5036403;28;20010;-75
2023/10/28 07:16:17;;;;;;;8.20;2.70;;;;;;;;;;5019026;28;20026;-75
2023/10/28 07:18:51;;;;;;;5.00;1.57;;;;;;;;;;5019890;28;20018;-75
2023/10/28 07:21:42;;;;;;;4.00;1.70;;;;;;;;;;5037252;28;20018;-77
2023/10/28 07:24:11;;;;;;;6.83;1.67;;;;;;;;;;5017304;28;20086;-75
2023/10/28 07:26:40;;;;;;;4.80;1.70;;;;;;;;;;5036947;28;20041;-77
2023/10/28 07:29:07;;;;;;;5.30;1.97;;;;;;;;;;5019300;28;20066;-77
2023/10/28 07:31:34;;;;;;;3.83;1.67;;;;;;;;;;5019465;28;20084;-76
2023/10/28 07:34:03;;;;;;;3.93;1.93;;;;;;;;;;5019211;28;20037;-75
2023/10/28 07:36:32;;;;;;;7.60;2.30;;;;;;;;;;5032168;28;20040;-75
2023/10/28 07:39:01;;;;;;;3.83;1.90;;;;;;;;;;5034962;28;20037;-77
2023/10/28 07:41:29;;;;;;;4.13;2.37;;;;;;;;;;5018909;28;20026;-77
2023/10/28 07:43:58;;;;;;;6.40;2.07;;;;;;;;;;5019321;28;20014;-75
2023/10/28 07:46:29;;;;;;;5.10;2.00;;;;;;;;;;5034984;28;20029;-77
2023/10/28 07:48:56;;;;;;;12.20;2.45;;;;;;;;;;5036634;28;20041;-77
2023/10/28 07:51:31;;;;;;;11.07;3.77;;;;;;;;;;5018143;28;20026;-75
2023/10/28 07:53:59;;;;;;;3.37;2.37;;;;;;;;;;5034980;28;20022;-77
2023/10/28 07:56:33;;;;;;;3.97;2.50;;;;;;;;;;5014593;28;20029;-77
2023/10/28 07:59:07;;;;;;;6.30;1.87;;;;;;;;;;5019073;28;20022;-74
2023/10/28 08:01:35;;;;;;;11.53;2.70;;;;;;;;;;5018941;28;20010;-76
2023/10/28 08:04:04;;;;;;;9.57;3.03;;;;;;;;;;5030568;28;20014;-76
2023/10/28 08:06:35;;;;;;;6.97;2.30;;;;;;;;;;5018982;28;20060;-78
2023/10/28 08:09:05;;;;;;;6.40;3.07;;;;;;;;;;5035383;28;20030;-76
2023/10/28 08:11:50;;;;;;;8.57;2.47;;;;;;;;;;5018990;28;20028;-77
2023/10/28 08:14:16;;;;;;;4.80;2.63;;;;;;;;;;5036472;28;20030;-77
2023/10/28 08:16:42;;;;;;;5.17;3.00;;;;;;;;;;5018429;28;20022;-78
2023/10/28 08:19:12;;;;;;;6.00;3.47;;;;;;;;;;5032459;28;20028;-77
2023/10/28 08:21:38;;;;;;;6.73;2.40;;;;;;;;;;5034057;28;20042;-78
2023/10/28 08:24:10;;;;;;;11.10;4.17;;;;;;;;;;5035827;28;20038;-76
2023/10/28 08:26:36;;;;;;;;;;;;;;;;;;5019181;28;20025;-76
2023/10/28 08:29:10;;;;;;;9.07;2.53;;;;;;;;;;5035771;28;19901;-75
2023/10/28 08:31:36;;;;;;;6.67;2.30;;;;;;;;;;5015819;28;20030;-75
2023/10/28 08:34:19;;;;;;;3.97;2.27;;;;;;;;;;5036071;28;20085;-75
2023/10/28 08:36:48;;;;;;;5.47;2.07;;;;;;;;;;5034753;28;20092;-77
2023/10/28 08:39:25;;;;;;;5.67;2.07;;;;;;;;;;5018164;28;20041;-75
2023/10/28 08:42:00;;;;;;;6.10;2.50;;;;;;;;;;5016340;28;20029;-75
2023/10/28 08:44:33;;;;;;;6.53;2.40;;;;;;;;;;5038125;28;20077;-75
2023/10/28 08:47:00;;;;;;;4.57;2.60;;;;;;;;;;5019706;28;20073;-78
2023/10/28 08:49:29;;;;;;;5.13;3.33;;;;;;;;;;5036465;28;20037;-76
2023/10/28 08:52:14;;;;;;;4.20;2.33;;;;;;;;;;5019830;28;20018;-75
2023/10/28 08:54:42;;;;;;;7.47;3.13;;;;;;;;;;5019606;28;20025;-76
2023/10/28 08:57:13;;;;;;;5.87;2.90;;;;;;;;;;5022568;28;20014;-78
2023/10/28 08:59:42;;;;;;;3.97;2.13;;;;;;;;;;5037715;28;20038;-75
2023/10/28 09:02:11;;;;;;;8.57;1.97;;;;;;;;;;5017887;28;20006;-77
2023/10/28 09:04:39;;;;;;;6.67;2.07;;;;;;;;;;5035175;28;20034;-75
2023/10/28 09:07:15;;;;;;;9.07;1.97;;;;;;;;;;5019539;28;20052;-75
2023/10/28 09:09:42;;;;;;;4.37;2.03;;;;;;;;;;5021153;28;20021;-76
2023/10/28 09:12:11;;;;;;;4.77;1.47;;;;;;;;;;5019109;28;20049;-75
2023/10/28 09:14:41;;;;;;;7.00;1.70;;;;;;;;;;5039513;28;20038;-75
2023/10/28 09:17:20;;;;;;;4.47;2.07;;;;;;;;;;5035712;28;20102;-74
2023/10/28 09:19:46;;;;;;;6.33;1.80;;;;;;;;;;5020458;28;20049;-75
2023/10/28 09:22:12;;;;;;;6.23;2.03;;;;;;;;;;5036937;28;20040;-75
2023/10/28 09:24:41;;;;;;;2.67;1.20;;;;;;;;;;5019326;28;20265;-76
2023/10/28 09:27:10;;;;;;;4.13;1.63;;;;;;;;;;5019045;28;20060;-75
2023/10/28 09:29:41;;;;;;;2.60;1.30;;;;;;;;;;5020543;28;20026;-75
2023/10/28 09:32:13;;;;;;;4.10;1.30;;;;;;;;;;5020127;28;20279;-75
2023/10/28 09:34:39;;;;;;;5.38;1.30;;;;;;;;;;5019687;28;20033;-76
2023/10/28 09:37:09;;;;;;;4.07;1.30;;;;;;;;;;5038216;28;20026;-75
2023/10/28 09:39:47;;;;;;;2.47;0.90;;;;;;;;;;5032441;28;20053;-75
2023/10/28 09:42:23;;;;;;;3.13;1.10;;;;;;;;;;5036498;28;20009;-76
2023/10/28 09:44:52;;;;;;;5.27;1.57;;;;;;;;;;5017493;28;20018;-76
2023/10/28 09:47:22;;;;;;;4.83;1.20;;;;;;;;;;5034168;28;20109;-75
2023/10/28 09:49:51;;;;;;;1.87;1.13;;;;;;;;;;5033089;28;20029;-77
2023/10/28 09:52:27;;;;;;;3.23;1.30;;;;;;;;;;5018159;28;20018;-76
2023/10/28 09:55:05;;;;;;;6.93;1.00;;;;;;;;;;5017445;28;20030;-76
2023/10/28 09:57:36;;;;;;;4.13;1.00;;;;;;;;;;5035215;28;20101;-76
2023/10/28 10:00:23;;;;;;;5.43;1.53;;;;;;;;;;5018192;28;20014;-76
2023/10/28 10:02:56;;;;;;;3.77;1.33;;;;;;;;;;5016320;28;20232;-76
2023/10/28 10:05:36;;;;;;;7.25;1.10;;;;;;;;;;5017081;28;20060;-75
2023/10/28 10:08:05;;;;;;;1.35;0.70;;;;;;;;;;5032549;28;20118;-76
2023/10/28 10:10:49;;;;;;;3.63;1.50;;;;;;;;;;5017547;28;20014;-78
2023/10/28 10:13:29;;;;;;;2.67;1.05;;;;;;;;;;5030015;28;20045;-79
2023/10/28 10:16:07;;;;;;;4.57;1.00;;;;;;;;;;5017838;28;20021;-76
2023/10/28 10:18:37;;;;;;;4.60;1.42;;;;;;;;;;5014564;28;20047;-77
2023/10/28 10:21:10;;;;;;;5.28;1.48;;;;;;;;;;5032293;28;20058;-76
2023/10/28 10:23:41;;;;;;;4.13;0.70;;;;;;;;;;5025092;28;20022;-78
2023/10/28 10:26:07;;;;;;;4.53;0.80;;;;;;;;;;5015304;28;20026;-76
2023/10/28 10:28:33;;;;;;;5.78;0.80;;;;;;;;;;5014895;28;20042;-76
2023/10/28 10:31:15;;;;;;;2.95;1.08;;;;;;;;;;5014349;28;20033;-77
2023/10/28 10:33:57;;;;;;;2.67;0.83;;;;;;;;;;5016074;28;20022;-77
2023/10/28 10:36:27;;;;;;;2.90;0.80;;;;;;;;;;5015845;28;20285;-76
2023/10/28 10:39:16;;;;;;;1.98;0.85;;;;;;;;;;5015983;28;20026;-78
2023/10/28 10:41:48;;;;;;;3.88;1.00;;;;;;;;;;5034228;28;20032;-80
2023/10/28 10:44:21;;;;;;;5.00;1.00;;;;;;;;;;5039545;28;20029;-77
2023/10/28 10:46:51;;;;;;;4.60;0.90;;;;;;;;;;5024354;28;20018;-81
2023/10/28 10:49:21;;;;;;;4.07;0.95;;;;;;;;;;5024117;28;20026;-76
2023/10/28 10:51:48;;;;;;;3.03;0.98;;;;;;;;;;5048712;22;23798;-80
2023/10/28 10:54:17;;;;;;;5.13;1.17;;;;;;;;;;5064259;28;20056;-76
2023/10/28 10:56:51;;;;;;;7.47;1.30;;;;;;;;;;5056728;28;20025;-78
2023/10/28 10:59:19;;;;;;;5.18;1.00;;;;;;;;;;5061089;28;20072;-78
2023/10/28 11:02:06;;;;;;;6.30;1.63;;;;;;;;;;5077570;28;20017;-77
2023/10/28 11:04:39;;;;;;;9.25;1.73;;;;;;;;;;5062367;28;20064;-76
2023/10/28 11:07:06;;;;;;;6.05;1.33;;;;;;;;;;5062135;28;20032;-77
2023/10/28 11:09:42;;;;;;;5.22;1.30;;;;;;;;;;5064552;28;20013;-76
2023/10/28 11:12:10;;;;;;;10.82;1.67;;;;;;;;;;5064105;28;20040;-77
2023/10/28 11:14:38;;;;;;;6.18;1.55;;;;;;;;;;5045264;28;20022;-76
2023/10/28 11:17:17;;;;;;;;;;;;;;;;;;;;;
2023/10/28 11:19:51;;;;;;;9.30;2.03;;;;;;;;;;5081764;28;20013;-78
2023/10/28 11:22:17;;;;;;;9.57;1.85;;;;;;;;;;5072208;28;20072;-76
2023/10/28 11:24:46;;;;;;;14.65;1.70;;;;;;;;;;5053449;28;20020;-78
2023/10/28 11:27:19;;;;;;;14.13;2.35;;;;;;;;;;5064176;28;20032;-78
2023/10/28 11:29:56;;;;;;;;;;;;;;;;;;;;;
2023/10/28 11:32:28;;;;;;;9.27;2.10;;;;;;;;;;5067521;28;20040;-77
2023/10/28 11:35:03;;;;;;;8.45;2.05;;;;;;;;;;5060594;28;20028;-77
2023/10/28 11:37:32;;;;;;;7.05;1.63;;;;;;;;;;5058621;28;20013;-77
2023/10/28 11:40:03;;;;;;;9.82;1.75;;;;;;;;;;5051165;28;20023;-76
2023/10/28 11:42:39;;;;;;;8.40;1.20;;;;;;;;;;5056922;28;20059;-77
2023/10/28 11:45:16;;;;;;;7.63;1.05;;;;;;;;;;5061006;28;20021;-78
2023/10/28 11:50:36;;;;;;;7.03;1.67;;;;;;;;;;5067290;28;20013;-77
2023/10/28 11:53:02;;;;;;;9.45;1.60;;;;;;;;;;5057657;28;20017;-77
2023/10/28 11:55:38;;;;;;;8.75;1.50;;;;;;;;;;5060767;28;20008;-77
2023/10/28 11:58:04;;;;;;;4.80;1.38;;;;;;;;;;5063156;28;20040;-76
2023/10/28 12:00:32;;;;;;;5.95;0.73;;;;;;;;;;5057733;28;20033;-77
2023/10/28 12:02:59;;;;;;;14.30;2.05;;;;;;;;;;5061392;28;20005;-75
2023/10/28 12:05:27;;;;;;;7.78;0.98;;;;;;;;;;5072332;28;20009;-77
2023/10/28 12:08:27;;;;;;;8.35;2.20;;;;;;;;;;5044512;28;20049;-77
2023/10/28 12:10:56;;;;;;;6.18;1.40;;;;;;;;;;5071680;28;20024;-77
2023/10/28 12:13:31;;;;;;;7.75;1.25;;;;;;;;;;5059519;28;20021;-77
2023/10/28 12:16:06;;;;;;;8.65;1.92;;;;;;;;;;5063420;28;20009;-78
2023/10/28 12:18:48;;;;;;;8.60;1.23;;;;;;;;;;5058787;28;20025;-78
2023/10/28 12:21:30;;;;;;;;;;;;;;;;;;;;;
2023/10/28 12:23:58;;;;;;;6.63;1.77;;;;;;;;;;5065001;28;20479;-78
2023/10/28 12:26:34;;;;;;;8.60;1.67;;;;;;;;;;5052221;28;20031;-78
2023/10/28 12:29:14;;;;;;;;;;;;;;;;;;;;;
2023/10/28 12:31:42;;;;;;;4.53;1.00;;;;;;;;;;5065706;28;20061;-77
2023/10/28 12:34:08;;;;;;;8.35;1.30;;;;;;;;;;5049877;28;20056;-78
2023/10/28 12:36:42;;;;;;;6.68;0.95;;;;;;;;;;5053075;28;20184;-77
2023/10/28 12:39:27;;;;;;;5.13;1.15;;;;;;;;;;5050426;28;20099;-78
2023/10/28 12:41:53;;;;;;;3.45;0.90;;;;;;;;;;5050071;28;20096;-79
2023/10/28 12:44:19;;;;;;;4.55;1.15;;;;;;;;;;5048710;28;20105;-78
2023/10/28 12:46:47;;;;;;;6.40;1.50;;;;;;;;;;5050505;28;20037;-79
2023/10/28 12:49:31;;;;;;;6.25;0.98;;;;;;;;;;5051990;28;20009;-78
2023/10/28 12:52:01;;;;;;;4.25;0.65;;;;;;;;;;5051871;28;20048;-78
2023/10/28 12:54:27;;;;;;;3.72;1.10;;;;;;;;;;5067336;28;20017;-78
2023/10/28 12:57:13;;;;;;;4.45;1.05;;;;;;;;;;5051024;28;20032;-78
2023/10/28 12:59:46;;;;;;;6.80;1.20;;;;;;;;;;5066026;28;20098;-78
2023/10/28 13:02:22;;;;;;;5.65;1.38;;;;;;;;;;5051926;28;20021;-77
2023/10/28 13:04:48;;;;;;;6.00;0.63;;;;;;;;;;5050415;28;20017;-78
2023/10/28 13:07:14;;;;;;;3.10;0.80;;;;;;;;;;5066617;28;20054;-78
2023/10/28 13:09:40;;;;;;;3.25;0.65;;;;;;;;;;5049884;28;20025;-77
2023/10/28 13:12:06;;;;;;;2.47;0.50;;;;;;;;;;5068557;28;20036;-78
2023/10/28 13:14:32;;;;;;;2.72;0.90;;;;;;;;;;5050116;28;20040;-78
2023/10/28 13:16:58;;;;;;;4.40;0.77;;;;;;;;;;5065827;28;20042;-78
2023/10/28 13:19:29;;;;;;;2.25;0.20;;;;;;;;;;5050161;28;20024;-77
2023/10/28 13:21:55;;;;;;;2.88;0.40;;;;;;;;;;5050477;28;20021;-79
2023/10/28 13:24:21;;;;;;;3.13;0.50;;;;;;;;;;5050567;28;20029;-78
2023/10/28 13:26:50;;;;;;;5.00;0.88;;;;;;;;;;5049351;28;20040;-77
2023/10/28 13:29:17;;;;;;;3.85;0.40;;;;;;;;;;5067107;28;20017;-79
2023/10/28 13:31:43;;;;;;;2.78;0.63;;;;;;;;;;5063927;28;20040;-78
2023/10/28 13:34:09;;;;;;;3.85;1.30;;;;;;;;;;5049475;28;20025;-79
2023/10/28 13:36:35;;;;;;;3.28;1.00;;;;;;;;;;5067131;28;20037;-78
2023/10/28 13:39:02;;;;;;;0.93;0.30;;;;;;;;;;5051956;28;20028;-78
2023/10/28 13:41:28;;;;;;;1.75;0.40;;;;;;;;;;5051579;28;20021;-78
2023/10/28 13:43:54;;;;;;;2.28;0.40;;;;;;;;;;5053358;28;20128;-77
2023/10/28 13:46:24;;;;;;;0.40;0.20;;;;;;;;;;5050713;28;20020;-78
2023/10/28 13:48:51;;;;;;;1.20;0.30;;;;;;;;;;5050444;28;20036;-78
2023/10/28 13:51:22;;;;;;;2.05;0.47;;;;;;;;;;5050859;28;20021;-78
2023/10/28 13:53:49;;;;;;;2.17;0.20;;;;;;;;;;5063008;28;20020;-78
2023/10/28 13:56:18;;;;;;;7.03;0.50;;;;;;;;;;5049891;28;20021;-78
2023/10/28 13:58:44;;;;;;;1.02;0.40;;;;;;;;;;5049012;28;20092;-77
2023/10/28 14:01:10;;;;;;;1.38;0.28;;;;;;;;;;5052338;28;20221;-77
2023/10/28 14:03:37;;;;;;;1.13;0.32;;;;;;;;;;5048703;28;21242;-77
2023/10/28 14:06:12;;;;;;;1.48;0.40;;;;;;;;;;5049967;28;20025;-78
2023/10/28 14:08:39;;;;;;;1.90;0.30;;;;;;;;;;5050266;28;20100;-78
2023/10/28 14:11:11;;;;;;;2.50;0.45;;;;;;;;;;5049264;28;20222;-80
2023/10/28 14:13:40;;;;;;;1.73;0.50;;;;;;;;;;5050704;28;20017;-77
2023/10/28 14:16:17;;;;;;;1.63;0.95;;;;;;;;;;5065585;28;20041;-77
2023/10/28 14:18:49;;;;;;;0.77;0.30;;;;;;;;;;5049762;28;20278;-78
2023/10/28 14:21:19;;;;;;;1.20;0.32;;;;;;;;;;5061897;28;20083;-77
2023/10/28 14:24:05;;;;;;;1.70;0.30;;;;;;;;;;5045898;28;20060;-77
2023/10/28 14:26:32;;;;;;;1.58;0.52;;;;;;;;;;5048563;28;20044;-78
2023/10/28 14:28:58;;;;;;;1.48;0.30;;;;;;;;;;5052091;28;20053;-77
2023/10/28 14:31:50;;;;;;;4.15;0.50;;;;;;;;;;5048541;28;20039;-77
2023/10/28 14:34:19;;;;;;;0.93;0.25;;;;;;;;;;5048062;28;20092;-79
2023/10/28 14:36:47;;;;;;;0.73;0.28;;;;;;;;;;5047527;28;20032;-77
2023/10/28 14:39:25;;;;;;;1.13;0.47;;;;;;;;;;5049575;28;20029;-77
2023/10/28 14:41:53;;;;;;;2.13;0.50;;;;;;;;;;5049607;28;20032;-77
2023/10/28 14:44:19;;;;;;;0.50;0.20;;;;;;;;;;5050200;28;20005;-77
2023/10/28 14:46:50;;;;;;;0.63;0.20;;;;;;;;;;5049508;28;20044;-79
2023/10/28 14:49:16;;;;;;;0.65;0.20;;;;;;;;;;5052779;28;20017;-77
2023/10/28 14:51:44;;;;;;;0.95;0.30;;;;;;;;;;5049545;28;20013;-78
2023/10/28 14:54:13;;;;;;;1.60;0.30;;;;;;;;;;5047316;28;20021;-79
2023/10/28 14:56:39;;;;;;;1.65;0.40;;;;;;;;;;5046916;28;20201;-77
2023/10/28 14:59:06;;;;;;;1.35;0.57;;;;;;;;;;5046279;28;20038;-78
2023/10/28 15:01:34;;;;;;;3.58;0.80;;;;;;;;;;5045088;28;20047;-78
2023/10/28 15:04:17;;;;;;;2.08;0.95;;;;;;;;;;5062207;28;20051;-79
2023/10/28 15:06:45;;;;;;;1.25;0.43;;;;;;;;;;5042607;28;20040;-77
2023/10/28 15:09:15;;;;;;;1.42;0.40;;;;;;;;;;5046168;28;20029;-76
2023/10/28 15:11:42;;;;;;;2.10;0.60;;;;;;;;;;5050019;28;20025;-80
2023/10/28 15:14:19;;;;;;;1.17;0.40;;;;;;;;;;5043798;28;20044;-77
2023/10/28 15:16:48;;;;;;;5.63;0.65;;;;;;;;;;5043015;28;20013;-76
2023/10/28 15:19:16;;;;;;;4.32;0.80;;;;;;;;;;5043474;28;20024;-80
2023/10/28 15:24:18;;;;;;;2.17;0.60;;;;;;;;;;5053092;28;20030;-81
2023/10/28 15:26:57;;;;;;;;;;;;;;;;;;;;;
2023/10/28 15:29:30;;;;;;;1.90;0.57;;;;;;;;;;5050708;28;20033;-77